createdAt,value
2018-06-19T00:01:11.041Z,13.89
2018-06-19T00:03:38.936Z,13.89
2018-06-19T00:06:07.065Z,13.90
2018-06-19T00:08:34.780Z,13.89
2018-06-19T00:11:02.410Z,13.87
2018-06-19T00:13:30.162Z,13.83
2018-06-19T00:15:57.966Z,13.84
2018-06-19T00:18:28.602Z,13.84
2018-06-19T00:20:59.140Z,13.82
2018-06-19T00:23:26.795Z,13.83
2018-06-19T00:25:54.465Z,13.83
2018-06-19T00:28:22.366Z,13.84
2018-06-19T00:30:49.966Z,13.85
2018-06-19T00:33:17.671Z,13.85
2018-06-19T00:35:45.518Z,13.85
2018-06-19T00:38:13.169Z,13.86
2018-06-19T00:40:40.877Z,13.86
2018-06-19T00:43:08.894Z,13.86
2018-06-19T00:45:36.559Z,13.88
2018-06-19T00:48:04.235Z,13.87
2018-06-19T00:50:33.093Z,13.87
2018-06-19T00:53:01.346Z,13.87
2018-06-19T00:55:28.968Z,13.87
2018-06-19T00:57:56.967Z,13.88
2018-06-19T01:00:24.551Z,13.90
2018-06-19T01:02:52.209Z,13.91
2018-06-19T01:05:20.235Z,13.92
2018-06-19T01:07:48.058Z,13.93
2018-06-19T01:10:15.681Z,13.95
2018-06-19T01:12:43.489Z,13.95
2018-06-19T01:15:11.098Z,13.97
2018-06-19T01:17:38.757Z,13.98
2018-06-19T01:20:07.237Z,14.00
2018-06-19T01:22:34.877Z,14.02
2018-06-19T01:25:02.455Z,14.03
2018-06-19T01:27:30.310Z,14.03
2018-06-19T01:29:57.921Z,14.04
2018-06-19T01:32:25.607Z,14.05
2018-06-19T01:34:53.734Z,14.07
2018-06-19T01:37:21.292Z,14.08
2018-06-19T01:39:48.896Z,14.10
2018-06-19T01:42:16.827Z,14.11
2018-06-19T01:44:44.421Z,14.12
2018-06-19T01:47:12.055Z,14.13
2018-06-19T01:49:39.929Z,14.14
2018-06-19T01:52:07.552Z,14.13
2018-06-19T01:54:35.200Z,14.15
2018-06-19T01:57:02.970Z,14.17
2018-06-19T01:59:30.545Z,14.15
2018-06-19T02:01:58.144Z,14.17
2018-06-19T02:04:26.281Z,14.16
2018-06-19T02:06:53.878Z,14.17
2018-06-19T02:09:21.684Z,14.17
2018-06-19T02:11:49.642Z,14.16
2018-06-19T02:14:17.247Z,14.17
2018-06-19T02:16:44.873Z,14.16
2018-06-19T02:19:12.923Z,14.15
2018-06-19T02:21:40.517Z,14.12
2018-06-19T02:24:08.191Z,14.14
2018-06-19T02:26:36.211Z,14.16
2018-06-19T02:29:03.788Z,14.18
2018-06-19T02:31:31.410Z,14.18
2018-06-19T02:33:59.434Z,14.17
2018-06-19T02:36:27.022Z,14.17
2018-06-19T02:38:54.603Z,14.17
2018-06-19T02:41:22.714Z,14.18
2018-06-19T02:43:50.315Z,14.20
2018-06-19T02:46:17.928Z,14.20
2018-06-19T02:48:46.035Z,14.20
2018-06-19T02:51:13.683Z,14.21
2018-06-19T02:53:41.298Z,14.23
2018-06-19T02:56:09.369Z,14.25
2018-06-19T02:58:37.008Z,14.26
2018-06-19T03:01:04.661Z,14.28
2018-06-19T03:03:32.637Z,14.28
2018-06-19T03:06:00.220Z,14.30
2018-06-19T03:08:27.868Z,14.29
2018-06-19T03:10:56.094Z,14.29
2018-06-19T03:13:23.684Z,14.29
2018-06-19T03:15:51.299Z,14.28
2018-06-19T03:18:19.308Z,14.28
2018-06-19T03:20:46.944Z,14.30
2018-06-19T03:23:14.539Z,14.29
2018-06-19T03:25:42.481Z,14.28
2018-06-19T03:28:10.015Z,14.28
2018-06-19T03:30:37.582Z,14.28
2018-06-19T03:33:05.597Z,14.29
2018-06-19T03:35:33.164Z,14.29
2018-06-19T03:38:00.831Z,14.30
2018-06-19T03:40:28.893Z,14.29
2018-06-19T03:42:56.469Z,14.30
2018-06-19T03:45:24.185Z,14.30
2018-06-19T03:47:52.298Z,14.30
2018-06-19T03:50:19.917Z,14.28
2018-06-19T03:52:47.522Z,14.28
2018-06-19T03:55:15.645Z,14.30
2018-06-19T03:57:43.252Z,14.31
2018-06-19T04:00:10.849Z,14.33
2018-06-19T04:02:38.711Z,14.34
2018-06-19T04:05:06.324Z,14.34
2018-06-19T04:07:34.196Z,14.35
2018-06-19T04:10:02.502Z,14.36
2018-06-19T04:12:30.263Z,14.37
2018-06-19T04:14:57.885Z,14.41
2018-06-19T04:17:26.853Z,14.42
2018-06-19T04:19:55.532Z,14.42
2018-06-19T04:22:23.395Z,14.41
2018-06-19T04:24:52.904Z,14.40
2018-06-19T04:27:35.417Z,14.42
2018-06-19T04:30:03.629Z,14.45
2018-06-19T04:32:31.189Z,14.48
2018-06-19T04:34:58.847Z,14.50
2018-06-19T04:37:26.842Z,14.50
2018-06-19T04:39:54.434Z,14.50
2018-06-19T04:42:22.052Z,14.50
2018-06-19T04:44:49.961Z,14.20
2018-06-19T04:47:17.540Z,14.49
2018-06-19T04:49:45.314Z,14.51
2018-06-19T04:52:14.079Z,14.55
2018-06-19T04:54:41.653Z,14.55
2018-06-19T04:57:09.307Z,14.56
2018-06-19T04:59:37.351Z,14.55
2018-06-19T05:02:04.958Z,14.58
2018-06-19T05:04:32.587Z,14.56
2018-06-19T05:07:00.397Z,14.56
2018-06-19T05:09:28.011Z,14.55
2018-06-19T05:11:55.668Z,14.55
2018-06-19T05:14:23.677Z,14.56
2018-06-19T05:16:51.257Z,14.55
2018-06-19T05:19:18.883Z,14.54
2018-06-19T05:21:47.097Z,14.53
2018-06-19T05:24:14.763Z,14.54
2018-06-19T05:26:42.411Z,14.52
2018-06-19T05:29:10.360Z,14.51
2018-06-19T05:31:37.997Z,14.49
2018-06-19T05:34:05.630Z,14.44
2018-06-19T05:36:33.579Z,14.39
2018-06-19T05:39:01.316Z,14.34
2018-06-19T05:41:28.984Z,14.27
2018-06-19T05:43:56.892Z,14.23
2018-06-19T05:46:24.607Z,14.19
2018-06-19T05:48:52.230Z,14.14
2018-06-19T05:51:20.132Z,14.13
2018-06-19T05:53:47.788Z,14.12
2018-06-19T05:56:15.385Z,14.13
2018-06-19T05:58:43.457Z,14.12
2018-06-19T06:01:11.043Z,14.10
2018-06-19T06:03:38.618Z,14.07
2018-06-19T06:06:06.558Z,14.05
2018-06-19T06:08:34.174Z,14.06
2018-06-19T06:11:01.780Z,14.05
2018-06-19T06:13:29.706Z,14.06
2018-06-19T06:15:57.863Z,13.73
2018-06-19T06:18:25.644Z,14.04
2018-06-19T06:20:53.783Z,14.04
2018-06-19T06:23:21.382Z,14.04
2018-06-19T06:25:49.072Z,14.05
2018-06-19T06:28:16.906Z,14.04
2018-06-19T06:30:44.500Z,14.03
2018-06-19T06:33:12.109Z,14.00
2018-06-19T06:35:40.049Z,13.98
2018-06-19T06:38:07.666Z,14.00
2018-06-19T06:40:35.317Z,14.01
2018-06-19T06:43:03.269Z,14.02
2018-06-19T06:45:30.949Z,14.02
2018-06-19T06:47:58.546Z,14.04
2018-06-19T06:50:26.567Z,14.07
2018-06-19T06:52:54.205Z,14.09
2018-06-19T06:55:21.830Z,14.10
2018-06-19T06:57:49.681Z,14.13
2018-06-19T07:00:17.343Z,14.13
2018-06-19T07:02:44.893Z,14.12
2018-06-19T07:05:12.607Z,14.12
2018-06-19T07:07:40.218Z,14.13
2018-06-19T07:10:07.913Z,14.12
2018-06-19T07:12:35.844Z,14.13
2018-06-19T07:15:03.562Z,14.13
2018-06-19T07:17:31.418Z,14.16
2018-06-19T07:19:59.240Z,14.17
2018-06-19T07:22:26.886Z,14.17
2018-06-19T07:24:54.543Z,14.20
2018-06-19T07:27:22.613Z,14.23
2018-06-19T07:29:50.196Z,14.25
2018-06-19T07:32:17.894Z,14.25
2018-06-19T07:34:45.857Z,14.27
2018-06-19T07:37:13.437Z,14.28
2018-06-19T07:39:41.053Z,14.29
2018-06-19T07:42:08.845Z,14.32
2018-06-19T07:44:36.481Z,14.33
2018-06-19T07:47:04.136Z,14.34
2018-06-19T07:49:31.995Z,14.37
2018-06-19T07:51:59.637Z,14.37
2018-06-19T07:54:27.313Z,14.37
2018-06-19T07:56:55.244Z,14.38
2018-06-19T07:59:22.823Z,14.39
2018-06-19T08:01:50.405Z,14.41
2018-06-19T08:04:18.250Z,14.42
2018-06-19T08:06:45.895Z,14.45
2018-06-19T08:09:13.578Z,14.45
2018-06-19T08:11:41.577Z,14.46
2018-06-19T08:14:09.203Z,14.49
2018-06-19T08:16:36.807Z,14.50
2018-06-19T08:19:05.029Z,14.50
2018-06-19T08:21:32.630Z,14.52
2018-06-19T08:24:00.232Z,14.54
2018-06-19T08:26:28.214Z,14.57
2018-06-19T08:28:55.924Z,14.61
2018-06-19T08:31:23.571Z,14.63
2018-06-19T08:33:51.587Z,14.63
2018-06-19T08:36:19.224Z,14.62
2018-06-19T08:38:46.888Z,14.64
2018-06-19T08:41:14.896Z,14.66
2018-06-19T08:43:42.548Z,14.67
2018-06-19T08:46:10.195Z,14.68
2018-06-19T08:48:38.049Z,14.71
2018-06-19T08:51:05.627Z,14.73
2018-06-19T08:53:33.321Z,14.72
2018-06-19T08:56:01.385Z,14.69
2018-06-19T08:58:28.994Z,14.71
2018-06-19T09:00:56.623Z,14.72
2018-06-19T09:03:24.392Z,14.71
2018-06-19T09:05:51.995Z,14.73
2018-06-19T09:08:19.635Z,14.74
2018-06-19T09:10:47.406Z,14.73
2018-06-19T09:13:15.049Z,14.73
2018-06-19T09:15:42.639Z,14.74
2018-06-19T09:18:10.603Z,14.75
2018-06-19T09:20:38.476Z,14.75
2018-06-19T09:23:06.173Z,14.78
2018-06-19T09:25:34.051Z,14.77
2018-06-19T09:28:01.864Z,14.76
2018-06-19T09:30:29.532Z,14.73
2018-06-19T09:32:57.472Z,14.74
2018-06-19T09:35:25.071Z,14.74
2018-06-19T09:37:52.709Z,14.72
2018-06-19T09:40:20.507Z,14.67
2018-06-19T09:42:48.175Z,14.64
2018-06-19T09:45:15.686Z,14.61
2018-06-19T09:47:43.819Z,14.55
2018-06-19T09:50:11.416Z,14.47
2018-06-19T09:52:39.069Z,14.34
2018-06-19T09:55:07.204Z,14.27
2018-06-19T09:57:34.974Z,14.23
2018-06-19T10:00:02.688Z,14.24
2018-06-19T10:02:30.576Z,14.22
2018-06-19T10:04:58.090Z,14.22
2018-06-19T10:07:25.828Z,14.21
2018-06-19T10:09:53.639Z,14.16
2018-06-19T10:12:21.520Z,14.13
2018-06-19T10:14:49.250Z,14.11
2018-06-19T10:17:17.215Z,14.06
2018-06-19T10:19:44.862Z,14.02
2018-06-19T10:22:12.834Z,14.03
2018-06-19T10:24:40.575Z,14.04
2018-06-19T10:27:08.226Z,14.01
2018-06-19T10:29:36.094Z,13.95
2018-06-19T10:32:03.970Z,13.59
2018-06-19T10:34:31.598Z,13.84
2018-06-19T10:36:59.293Z,13.82
2018-06-19T10:39:26.972Z,13.80
2018-06-19T10:41:54.610Z,13.81
2018-06-19T10:44:22.267Z,13.84
2018-06-19T10:46:49.884Z,13.89
2018-06-19T10:49:17.449Z,13.94
2018-06-19T10:51:44.996Z,14.00
2018-06-19T10:54:12.567Z,14.03
2018-06-19T10:56:40.120Z,14.10
2018-06-19T10:59:07.690Z,14.15
2018-06-19T11:01:36.511Z,14.21
2018-06-19T11:04:04.051Z,14.29
2018-06-19T11:06:31.660Z,14.36
2018-06-19T11:08:59.588Z,14.45
2018-06-19T11:11:27.139Z,14.53
2018-06-19T11:13:54.852Z,14.60
2018-06-19T11:16:22.645Z,14.67
2018-06-19T11:18:50.248Z,14.74
2018-06-19T11:21:17.970Z,14.78
2018-06-19T11:23:45.999Z,14.82
2018-06-19T11:26:14.051Z,14.87
2018-06-19T11:28:41.657Z,14.86
2018-06-19T11:31:09.507Z,14.84
2018-06-19T11:33:37.025Z,14.82
2018-06-19T11:36:04.716Z,14.80
2018-06-19T11:38:32.429Z,14.77
2018-06-19T11:41:00.029Z,14.75
2018-06-19T11:43:27.702Z,14.76
2018-06-19T11:45:55.376Z,14.75
2018-06-19T11:48:22.934Z,14.76
2018-06-19T11:50:50.707Z,14.81
2018-06-19T11:53:18.450Z,14.88
2018-06-19T11:55:45.976Z,14.95
2018-06-19T11:58:13.811Z,15.02
2018-06-19T12:00:41.504Z,15.06
2018-06-19T12:03:09.108Z,15.09
2018-06-19T12:05:37.959Z,15.10
2018-06-19T12:08:05.565Z,15.11
2018-06-19T12:10:33.190Z,15.07
2018-06-19T12:13:01.024Z,15.01
2018-06-19T12:15:28.764Z,14.97
2018-06-19T12:17:56.339Z,15.04
2018-06-19T12:20:24.196Z,15.26
2018-06-19T12:22:51.784Z,15.44
2018-06-19T12:25:19.610Z,15.54
2018-06-19T12:27:47.361Z,15.63
2018-06-19T12:30:15.100Z,15.35
2018-06-19T12:32:42.671Z,15.68
2018-06-19T12:35:10.457Z,15.74
2018-06-19T12:37:38.252Z,15.77
2018-06-19T12:40:06.081Z,15.78
2018-06-19T12:42:33.771Z,15.80
2018-06-19T12:45:01.481Z,15.87
2018-06-19T12:47:29.029Z,15.90
2018-06-19T12:50:36.018Z,15.88
2018-06-19T12:53:15.575Z,15.85
2018-06-19T12:55:54.541Z,15.83
2018-06-19T12:58:22.212Z,15.85
2018-06-19T13:00:49.791Z,15.84
2018-06-19T13:03:28.886Z,15.86
2018-06-19T13:06:08.195Z,15.84
2018-06-19T13:08:35.945Z,15.83
2018-06-19T13:11:04.075Z,15.84
2018-06-19T13:13:43.006Z,15.91
2018-06-19T13:16:21.806Z,16.01
2018-06-19T13:19:00.581Z,16.07
2018-06-19T13:21:28.331Z,16.10
2018-06-19T13:23:55.911Z,16.09
2018-06-19T13:26:23.760Z,16.07
2018-06-19T13:30:03.824Z,16.11
2018-06-19T13:32:32.046Z,16.20
2018-06-19T13:34:59.786Z,16.25
2018-06-19T13:37:27.336Z,16.26
2018-06-19T13:41:09.425Z,16.33
2018-06-19T13:43:48.105Z,16.34
2018-06-19T13:46:15.969Z,16.36
2018-06-19T13:48:43.589Z,16.37
2018-06-19T13:51:11.946Z,16.41
2018-06-19T13:53:40.336Z,16.46
2018-06-19T13:57:17.022Z,16.56
2018-06-19T13:59:45.018Z,16.63
2018-06-19T14:02:12.574Z,16.65
2018-06-19T14:04:40.197Z,16.71
2018-06-19T14:07:08.007Z,16.77
2018-06-19T14:09:48.074Z,16.83
2018-06-19T14:13:01.302Z,16.87
2018-06-19T14:15:30.268Z,16.97
2018-06-19T14:17:58.230Z,17.00
2018-06-19T14:20:25.989Z,17.06
2018-06-19T14:22:53.459Z,17.13
2018-06-19T14:25:21.561Z,17.20
2018-06-19T14:27:49.405Z,17.31
2018-06-19T14:30:16.939Z,17.40
2018-06-19T14:32:45.350Z,17.47
2018-06-19T14:35:13.055Z,17.52
2018-06-19T14:37:40.737Z,17.51
2018-06-19T14:40:08.583Z,17.53
2018-06-19T14:42:36.374Z,17.59
2018-06-19T14:45:04.627Z,17.67
2018-06-19T14:47:32.473Z,17.71
2018-06-19T14:50:00.117Z,17.76
2018-06-19T14:52:27.957Z,17.82
2018-06-19T14:54:55.844Z,17.88
2018-06-19T14:57:23.488Z,17.89
2018-06-19T14:59:51.065Z,17.94
2018-06-19T15:02:18.951Z,17.99
2018-06-19T15:04:46.675Z,18.04
2018-06-19T15:07:14.268Z,18.13
2018-06-19T15:09:42.223Z,18.18
2018-06-19T15:12:09.819Z,18.22
2018-06-19T15:14:37.385Z,18.27
2018-06-19T15:17:05.161Z,18.37
2018-06-19T15:22:31.431Z,18.62
2018-06-19T15:24:59.009Z,18.69
2018-06-19T15:27:26.647Z,18.81
2018-06-19T15:29:54.766Z,18.90
2018-06-19T15:32:22.582Z,18.98
2018-06-19T15:34:50.113Z,19.08
2018-06-19T15:37:18.227Z,19.10
2018-06-19T15:39:45.966Z,19.12
2018-06-19T15:42:13.508Z,19.05
2018-06-19T15:44:41.263Z,19.01
2018-06-19T15:47:08.882Z,18.99
2018-06-19T15:49:36.495Z,18.93
2018-06-19T15:52:04.529Z,18.86
2018-06-19T15:54:32.120Z,18.79
2018-06-19T15:56:59.677Z,18.73
2018-06-19T15:59:27.752Z,18.70
2018-06-19T16:01:55.308Z,18.67
2018-06-19T16:04:22.921Z,18.73
2018-06-19T16:06:50.633Z,18.90
2018-06-19T16:09:18.188Z,18.95
2018-06-19T16:11:45.799Z,18.96
2018-06-19T16:14:13.477Z,18.97
2018-06-19T16:16:41.104Z,18.96
2018-06-19T16:19:08.704Z,18.89
2018-06-19T16:21:36.542Z,18.79
2018-06-19T16:24:04.208Z,18.72
2018-06-19T16:26:31.884Z,18.69
2018-06-19T16:28:59.594Z,18.68
2018-06-19T16:31:27.318Z,18.65
2018-06-19T16:33:54.909Z,18.66
2018-06-19T16:36:22.775Z,18.66
2018-06-19T16:38:50.375Z,18.64
2018-06-19T16:41:18.000Z,18.65
2018-06-19T16:43:45.955Z,18.61
2018-06-19T16:46:13.600Z,18.59
2018-06-19T16:48:41.164Z,18.57
2018-06-19T16:51:09.588Z,18.60
2018-06-19T16:53:37.202Z,18.63
2018-06-19T16:56:04.868Z,18.65
2018-06-19T16:58:32.651Z,18.69
2018-06-19T17:01:00.207Z,18.67
2018-06-19T17:03:27.783Z,18.65
2018-06-19T17:05:55.667Z,18.61
2018-06-19T17:08:23.240Z,18.59
2018-06-19T17:10:50.773Z,18.56
2018-06-19T17:13:18.513Z,18.52
2018-06-19T17:15:46.061Z,18.49
2018-06-19T17:18:13.667Z,18.42
2018-06-19T17:20:41.761Z,18.32
2018-06-19T17:23:09.294Z,18.16
2018-06-19T17:25:36.799Z,18.04
2018-06-19T17:28:04.856Z,17.94
2018-06-19T17:30:32.408Z,17.89
2018-06-19T17:33:00.160Z,17.87
2018-06-19T17:35:28.079Z,17.85
2018-06-19T17:37:55.668Z,17.85
2018-06-19T17:40:23.280Z,17.84
2018-06-19T17:42:51.236Z,17.82
2018-06-19T17:45:18.808Z,17.81
2018-06-19T17:47:46.399Z,17.81
2018-06-19T17:50:14.178Z,17.82
2018-06-19T17:52:41.751Z,17.84
2018-06-19T17:55:09.363Z,17.83
2018-06-19T17:57:37.064Z,17.82
2018-06-19T18:00:04.844Z,17.81
2018-06-19T18:02:32.428Z,17.77
2018-06-19T18:05:00.185Z,17.68
2018-06-19T18:07:27.757Z,17.69
2018-06-19T18:09:55.356Z,17.68
2018-06-19T18:12:23.074Z,17.39
2018-06-19T18:14:50.686Z,17.69
2018-06-19T18:17:18.350Z,17.70
2018-06-19T18:19:46.092Z,17.71
2018-06-19T18:22:13.688Z,17.73
2018-06-19T18:24:41.282Z,17.77
2018-06-19T18:27:08.996Z,17.79
2018-06-19T18:29:36.570Z,17.82
2018-06-19T18:32:04.148Z,17.80
2018-06-19T18:34:32.055Z,17.78
2018-06-19T18:36:59.630Z,17.76
2018-06-19T18:39:27.185Z,17.73
2018-06-19T18:41:54.944Z,17.71
2018-06-19T18:44:23.432Z,17.67
2018-06-19T18:46:51.044Z,17.62
2018-06-19T18:49:18.608Z,17.60
2018-06-19T18:51:46.249Z,17.55
2018-06-19T18:54:13.868Z,17.52
2018-06-19T18:56:41.621Z,17.51
2018-06-19T18:59:09.241Z,17.52
2018-06-19T19:01:36.829Z,17.51
2018-06-19T19:04:04.492Z,17.50
2018-06-19T19:06:32.160Z,17.49
2018-06-19T19:08:59.712Z,17.45
2018-06-19T19:11:27.430Z,17.41
2018-06-19T19:13:54.982Z,17.39
2018-06-19T19:16:28.055Z,17.36
2018-06-19T19:19:00.161Z,17.31
2018-06-19T19:21:27.688Z,17.27
2018-06-19T19:23:55.320Z,17.23
2018-06-19T19:26:28.642Z,17.20
2018-06-19T19:29:01.717Z,17.15
2018-06-19T19:31:29.781Z,17.09
2018-06-19T19:33:57.337Z,17.04
2018-06-19T19:36:30.614Z,17.02
2018-06-19T19:39:03.994Z,16.99
2018-06-19T19:41:31.644Z,16.96
2018-06-19T19:43:59.282Z,16.96
2018-06-19T19:46:32.462Z,16.94
2018-06-19T19:49:00.363Z,16.90
2018-06-19T19:51:28.479Z,16.89
2018-06-19T19:53:56.199Z,16.85
2018-06-19T19:56:29.305Z,16.82
2018-06-19T19:58:57.017Z,16.79
2018-06-19T20:01:24.666Z,16.75
2018-06-19T20:03:52.303Z,16.72
2018-06-19T20:06:20.017Z,16.69
2018-06-19T20:08:47.702Z,16.68
2018-06-19T20:11:15.275Z,16.63
2018-06-19T20:13:43.044Z,16.62
2018-06-19T20:16:10.658Z,16.61
2018-06-19T20:18:38.363Z,16.58
2018-06-19T20:21:06.124Z,16.54
2018-06-19T20:23:33.727Z,16.51
2018-06-19T20:26:01.419Z,16.48
2018-06-19T20:28:29.167Z,16.42
2018-06-19T20:30:56.867Z,16.38
2018-06-19T20:33:24.434Z,16.35
2018-06-19T20:35:52.145Z,16.34
2018-06-19T20:38:19.882Z,16.33
2018-06-19T20:40:47.497Z,16.31
2018-06-19T20:43:15.395Z,16.28
2018-06-19T20:45:43.251Z,16.26
2018-06-19T20:48:10.778Z,16.21
2018-06-19T20:50:38.495Z,16.14
2018-06-19T20:53:06.237Z,16.09
2018-06-19T20:55:33.761Z,16.02
2018-06-19T20:58:01.424Z,15.98
2018-06-19T21:00:29.159Z,15.95
2018-06-19T21:02:56.724Z,15.93
2018-06-19T21:05:24.613Z,15.90
2018-06-19T21:07:52.356Z,15.87
2018-06-19T21:10:19.894Z,15.85
2018-06-19T21:12:47.883Z,15.82
2018-06-19T21:15:15.481Z,15.78
2018-06-19T21:17:43.071Z,15.76
2018-06-19T21:20:11.163Z,15.72
2018-06-19T21:22:38.853Z,15.65
2018-06-19T21:25:06.455Z,15.59
2018-06-19T21:27:34.184Z,15.56
2018-06-19T21:30:01.932Z,15.55
2018-06-19T21:32:29.550Z,15.51
2018-06-19T21:34:57.335Z,15.48
2018-06-19T21:37:24.979Z,15.45
2018-06-19T21:39:52.729Z,15.41
2018-06-19T21:42:20.414Z,15.39
2018-06-19T21:44:48.235Z,15.12
2018-06-19T21:47:15.783Z,15.32
2018-06-19T21:49:43.468Z,15.31
2018-06-19T21:52:11.114Z,15.26
2018-06-19T21:54:38.676Z,15.24
2018-06-19T21:57:06.427Z,15.23
2018-06-19T21:59:34.089Z,15.24
2018-06-19T22:02:01.693Z,15.22
2018-06-19T22:04:29.427Z,15.21
2018-06-19T22:06:57.063Z,15.18
2018-06-19T22:09:24.606Z,15.14
2018-06-19T22:11:52.705Z,15.10
2018-06-19T22:14:20.541Z,15.05
2018-06-19T22:16:48.140Z,14.99
2018-06-19T22:19:15.903Z,14.99
2018-06-19T22:21:43.604Z,14.97
2018-06-19T22:24:11.128Z,14.95
2018-06-19T22:26:38.881Z,14.91
2018-06-19T22:29:06.577Z,14.87
2018-06-19T22:31:34.118Z,14.83
2018-06-19T22:34:02.149Z,14.80
2018-06-19T22:36:29.972Z,14.77
2018-06-19T22:38:57.507Z,14.73
2018-06-19T22:41:26.209Z,14.65
2018-06-19T22:43:53.839Z,14.59
2018-06-19T22:46:21.411Z,14.56
2018-06-19T22:48:49.019Z,14.54
2018-06-19T22:51:16.825Z,14.50
2018-06-19T22:53:44.425Z,14.47
2018-06-19T22:56:12.256Z,14.46
2018-06-19T22:58:39.929Z,14.44
2018-06-19T23:01:07.542Z,14.43
2018-06-19T23:03:35.406Z,14.41
2018-06-19T23:06:03.309Z,14.40
2018-06-19T23:08:33.337Z,14.38
2018-06-19T23:11:01.126Z,14.35
2018-06-19T23:13:28.897Z,14.32
2018-06-19T23:15:56.573Z,14.27
2018-06-19T23:18:24.360Z,14.26
2018-06-19T23:20:52.266Z,14.22
2018-06-19T23:23:19.913Z,14.20
2018-06-19T23:25:47.646Z,14.17
2018-06-19T23:28:15.440Z,14.14
2018-06-19T23:30:43.061Z,14.10
2018-06-19T23:33:10.965Z,14.09
2018-06-19T23:35:38.904Z,14.04
2018-06-19T23:38:06.533Z,14.00
2018-06-19T23:40:34.338Z,13.97
2018-06-19T23:43:02.337Z,13.93
2018-06-19T23:45:29.892Z,13.90
2018-06-19T23:47:57.657Z,13.89
2018-06-19T23:50:25.412Z,13.86
2018-06-19T23:52:53.038Z,13.84
2018-06-19T23:55:20.807Z,13.81
2018-06-19T23:57:48.629Z,13.79
